createdAt,value
2023-03-20T00:01:22.812Z,94.97
2023-03-20T00:03:49.705Z,97.25
2023-03-20T00:06:17.808Z,107.60
2023-03-20T00:08:46.172Z,100.55
2023-03-20T00:11:26.968Z,109.25
2023-03-20T00:13:58.363Z,107.43
2023-03-20T00:16:30.472Z,102.32
2023-03-20T00:18:57.136Z,96.18
2023-03-20T00:21:23.557Z,96.00
2023-03-20T00:23:50.088Z,101.35
2023-03-20T00:26:18.538Z,91.28
2023-03-20T00:28:49.441Z,86.38
2023-03-20T00:31:18.966Z,84.68
2023-03-20T00:33:45.429Z,82.90
2023-03-20T00:36:12.001Z,83.15
2023-03-20T00:38:38.537Z,85.20
2023-03-20T00:41:21.496Z,80.20
2023-03-20T00:43:50.722Z,79.07
2023-03-20T00:46:17.249Z,80.03
2023-03-20T00:48:44.265Z,82.15
2023-03-20T00:51:10.778Z,84.45
2023-03-20T00:53:37.897Z,82.80
2023-03-20T00:56:05.070Z,100.43
2023-03-20T00:58:31.788Z,86.85
2023-03-20T01:00:58.414Z,83.05
2023-03-20T01:03:27.040Z,76.97
2023-03-20T01:05:53.516Z,65.78
2023-03-20T01:08:23.502Z,60.75
2023-03-20T01:10:53.462Z,57.28
2023-03-20T01:13:26.088Z,60.20
2023-03-20T01:15:54.392Z,47.65
2023-03-20T01:18:22.929Z,55.83
2023-03-20T01:20:50.111Z,65.07
2023-03-20T01:23:16.808Z,59.13
2023-03-20T01:25:43.552Z,68.32
2023-03-20T01:28:19.315Z,67.22
2023-03-20T01:30:46.792Z,70.63
2023-03-20T01:33:24.349Z,74.22
2023-03-20T01:35:51.330Z,87.32
2023-03-20T01:38:24.468Z,86.60
2023-03-20T01:41:14.675Z,99.50
2023-03-20T01:43:41.239Z,95.88
2023-03-20T01:46:26.302Z,97.30
2023-03-20T01:48:52.759Z,98.70
2023-03-20T01:51:30.164Z,101.70
2023-03-20T01:54:05.753Z,96.95
2023-03-20T01:56:34.934Z,107.70
2023-03-20T01:59:12.650Z,106.07
2023-03-20T02:01:40.555Z,109.38
2023-03-20T02:04:07.198Z,93.55
2023-03-20T02:06:33.684Z,91.32
2023-03-20T02:09:00.188Z,83.50
2023-03-20T02:11:26.949Z,86.47
2023-03-20T02:13:56.733Z,86.50
2023-03-20T02:16:23.178Z,83.85
2023-03-20T02:18:51.880Z,86.43
2023-03-20T02:21:33.612Z,89.38
2023-03-20T02:24:03.048Z,74.88
2023-03-20T02:26:52.680Z,60.83
2023-03-20T02:29:40.402Z,59.42
2023-03-20T02:32:15.591Z,61.55
2023-03-20T02:35:13.248Z,51.47
2023-03-20T02:38:11.354Z,60.92
2023-03-20T02:41:08.367Z,50.88
2023-03-20T02:43:56.527Z,61.05
2023-03-20T02:46:55.008Z,54.38
2023-03-20T02:49:58.791Z,38.55
2023-03-20T02:52:36.586Z,44.67
2023-03-20T02:55:03.013Z,49.90
2023-03-20T02:57:35.206Z,50.50
2023-03-20T03:00:35.951Z,50.33
2023-03-20T03:03:11.335Z,41.53
2023-03-20T03:05:48.597Z,41.95
2023-03-20T03:08:20.325Z,45.90
2023-03-20T03:10:54.706Z,44.75
2023-03-20T03:13:25.664Z,41.53
2023-03-20T03:15:55.962Z,41.17
2023-03-20T03:18:25.899Z,40.50
2023-03-20T03:20:58.251Z,36.88
2023-03-20T03:23:35.345Z,38.97
2023-03-20T03:26:05.003Z,36.53
2023-03-20T03:28:33.509Z,36.28
2023-03-20T03:31:00.669Z,39.97
2023-03-20T03:33:32.791Z,46.55
2023-03-20T03:36:09.487Z,56.95
2023-03-20T03:38:52.144Z,60.80
2023-03-20T03:41:30.193Z,59.78
2023-03-20T03:44:15.561Z,63.63
2023-03-20T03:46:44.547Z,67.63
2023-03-20T03:49:16.738Z,66.22
2023-03-20T03:51:46.754Z,58.67
2023-03-20T03:54:24.255Z,40.00
2023-03-20T03:56:51.939Z,33.38
2023-03-20T03:59:28.207Z,34.40
2023-03-20T04:01:57.050Z,39.20
2023-03-20T04:04:25.935Z,44.35
2023-03-20T04:06:52.464Z,51.60
2023-03-20T04:09:18.934Z,62.65
2023-03-20T04:11:50.847Z,67.35
2023-03-20T04:14:18.336Z,60.30
2023-03-20T04:16:45.374Z,64.40
2023-03-20T04:19:12.145Z,61.35
2023-03-20T04:21:38.658Z,69.22
2023-03-20T04:24:05.388Z,66.10
2023-03-20T04:26:31.876Z,70.43
2023-03-20T04:28:58.432Z,68.60
2023-03-20T04:31:24.893Z,56.40
2023-03-20T04:33:51.360Z,62.15
2023-03-20T04:36:17.846Z,61.85
2023-03-20T04:38:44.349Z,57.50
2023-03-20T04:41:10.813Z,54.92
2023-03-20T04:43:37.282Z,44.45
2023-03-20T04:46:03.805Z,43.70
2023-03-20T04:48:30.311Z,37.15
2023-03-20T04:50:56.824Z,34.60
2023-03-20T04:53:26.010Z,36.38
2023-03-20T04:55:53.494Z,43.03
2023-03-20T04:58:19.947Z,39.58
2023-03-20T05:00:46.741Z,35.15
2023-03-20T05:03:13.256Z,32.58
2023-03-20T05:05:39.737Z,35.10
2023-03-20T05:08:06.560Z,29.77
2023-03-20T05:10:33.106Z,44.20
2023-03-20T05:12:59.567Z,55.05
2023-03-20T05:15:26.106Z,46.38
2023-03-20T05:17:52.604Z,49.47
2023-03-20T05:20:19.237Z,47.08
2023-03-20T05:22:49.041Z,40.78
2023-03-20T05:25:15.599Z,37.95
2023-03-20T05:27:42.119Z,28.10
2023-03-20T05:30:09.328Z,28.20
2023-03-20T05:32:35.833Z,28.17
2023-03-20T05:35:02.331Z,30.17
2023-03-20T05:37:28.792Z,29.60
2023-03-20T05:39:55.253Z,30.02
2023-03-20T05:42:21.689Z,30.05
2023-03-20T05:44:48.134Z,34.03
2023-03-20T05:47:14.592Z,37.35
2023-03-20T05:49:41.080Z,44.17
2023-03-20T05:52:07.603Z,46.83
2023-03-20T05:54:34.081Z,52.25
2023-03-20T05:57:00.756Z,62.35
2023-03-20T05:59:27.263Z,68.78
2023-03-20T06:01:53.763Z,73.32
2023-03-20T06:04:20.297Z,73.20
2023-03-20T06:06:46.837Z,75.78
2023-03-20T06:09:13.297Z,80.72
2023-03-20T06:11:39.916Z,82.00
2023-03-20T06:14:06.405Z,77.25
2023-03-20T06:16:32.944Z,89.22
2023-03-20T06:18:59.361Z,89.75
2023-03-20T06:21:25.903Z,94.75
2023-03-20T06:23:52.380Z,86.63
2023-03-20T06:26:18.855Z,104.32
2023-03-20T06:28:45.380Z,104.63
2023-03-20T06:31:11.965Z,93.63
2023-03-20T06:33:38.443Z,85.85
2023-03-20T06:36:05.419Z,106.88
2023-03-20T06:38:31.977Z,68.40
2023-03-20T06:40:58.497Z,75.80
2023-03-20T06:43:25.037Z,73.25
2023-03-20T06:45:51.632Z,62.33
2023-03-20T06:48:18.138Z,66.10
2023-03-20T06:50:46.170Z,69.25
2023-03-20T06:53:12.627Z,62.30
2023-03-20T06:55:39.134Z,68.07
2023-03-20T06:58:05.650Z,66.97
2023-03-20T07:00:32.158Z,55.33
2023-03-20T07:03:00.410Z,58.60
2023-03-20T07:05:27.550Z,69.93
2023-03-20T07:07:54.038Z,48.45
2023-03-20T07:10:20.537Z,47.05
2023-03-20T07:12:47.021Z,47.13
2023-03-20T07:15:13.557Z,71.47
2023-03-20T07:17:40.093Z,133.10
2023-03-20T07:20:07.205Z,45.72
2023-03-20T07:22:33.629Z,50.83
2023-03-20T07:25:00.116Z,47.20
2023-03-20T07:27:26.595Z,35.63
2023-03-20T07:29:53.217Z,49.13
2023-03-20T07:32:19.705Z,33.17
2023-03-20T07:34:46.217Z,28.88
2023-03-20T07:37:12.838Z,182.02
2023-03-20T07:39:39.373Z,41.45
2023-03-20T07:42:05.969Z,31.23
2023-03-20T07:44:32.497Z,38.92
2023-03-20T07:46:58.934Z,34.17
2023-03-20T07:49:25.409Z,43.47
2023-03-20T07:51:52.057Z,41.47
2023-03-20T07:54:18.590Z,67.75
2023-03-20T07:56:45.152Z,40.95
2023-03-20T07:59:12.927Z,57.72
2023-03-20T08:01:39.600Z,68.72
2023-03-20T08:04:06.584Z,58.90
2023-03-20T08:06:33.222Z,45.13
2023-03-20T08:09:00.088Z,54.67
2023-03-20T08:11:26.541Z,48.03
2023-03-20T08:13:52.983Z,46.60
2023-03-20T08:16:19.541Z,81.97
2023-03-20T08:18:46.086Z,48.60
2023-03-20T08:21:12.573Z,42.53
2023-03-20T08:23:39.115Z,39.85
2023-03-20T08:26:05.643Z,47.45
2023-03-20T08:28:46.567Z,44.67
2023-03-20T08:31:14.956Z,43.15
2023-03-20T08:33:41.710Z,50.28
2023-03-20T08:36:08.451Z,47.25
2023-03-20T08:38:35.084Z,44.38
2023-03-20T08:41:01.587Z,33.25
2023-03-20T08:43:28.072Z,62.63
2023-03-20T08:45:55.149Z,85.15
2023-03-20T08:48:21.842Z,32.65
2023-03-20T08:50:48.543Z,29.08
2023-03-20T08:53:15.090Z,31.63
2023-03-20T08:55:41.545Z,26.02
2023-03-20T08:58:08.041Z,20.95
2023-03-20T09:00:34.513Z,22.70
2023-03-20T09:03:01.046Z,29.50
2023-03-20T09:05:27.554Z,25.48
2023-03-20T09:07:54.238Z,18.33
2023-03-20T09:10:20.758Z,17.65
2023-03-20T09:12:47.257Z,49.97
2023-03-20T09:15:13.884Z,202.98
2023-03-20T09:17:40.373Z,229.43
2023-03-20T09:20:07.425Z,34.47
2023-03-20T09:22:33.965Z,31.08
2023-03-20T09:25:00.421Z,29.15
2023-03-20T09:27:26.960Z,38.95
2023-03-20T09:29:53.516Z,34.67
2023-03-20T09:32:20.001Z,54.55
2023-03-20T09:34:47.377Z,32.05
2023-03-20T09:37:13.908Z,27.38
2023-03-20T09:39:40.407Z,19.40
2023-03-20T09:43:02.166Z,20.50
2023-03-20T09:45:48.598Z,26.58
2023-03-20T09:48:38.189Z,37.97
2023-03-20T09:51:38.588Z,37.95
2023-03-20T09:54:13.124Z,34.22
2023-03-20T09:56:40.038Z,61.45
2023-03-20T09:59:07.518Z,126.53
2023-03-20T10:01:47.761Z,28.33
2023-03-20T10:04:14.345Z,22.70
2023-03-20T10:09:23.746Z,30.30
2023-03-20T10:11:53.231Z,26.85
2023-03-20T10:14:42.042Z,23.25
2023-03-20T10:17:35.677Z,25.77
2023-03-20T10:20:31.030Z,24.23
2023-03-20T10:23:16.561Z,22.90
2023-03-20T10:28:22.194Z,23.88
2023-03-20T10:31:05.070Z,35.80
2023-03-20T10:33:46.621Z,24.73
2023-03-20T10:36:29.594Z,25.88
2023-03-20T10:39:09.713Z,27.52
2023-03-20T10:41:39.365Z,26.83
2023-03-20T10:44:14.639Z,20.95
2023-03-20T10:46:45.770Z,21.48
2023-03-20T10:49:19.208Z,20.88
2023-03-20T10:51:52.481Z,22.30
2023-03-20T10:54:31.048Z,19.08
2023-03-20T10:57:00.841Z,18.52
2023-03-20T10:59:32.634Z,21.02
2023-03-20T11:01:59.138Z,18.10
2023-03-20T11:04:25.761Z,20.20
2023-03-20T11:07:17.084Z,20.20
2023-03-20T11:09:43.590Z,14.18
2023-03-20T11:12:19.717Z,17.15
2023-03-20T11:14:46.656Z,14.40
2023-03-20T11:17:13.148Z,12.68
2023-03-20T11:19:41.506Z,11.65
2023-03-20T11:22:25.444Z,11.43
2023-03-20T11:24:54.775Z,13.15
2023-03-20T11:27:29.893Z,11.63
2023-03-20T11:29:57.732Z,10.35
2023-03-20T11:32:31.540Z,13.07
2023-03-20T11:35:11.408Z,16.42
2023-03-20T11:37:44.339Z,9.52
2023-03-20T11:40:16.381Z,9.10
2023-03-20T11:43:18.526Z,10.70
2023-03-20T11:45:47.924Z,8.63
2023-03-20T11:48:18.655Z,16.42
2023-03-20T11:50:49.086Z,9.02
2023-03-20T11:53:21.716Z,37.00
2023-03-20T11:56:07.374Z,6.53
2023-03-20T11:58:37.321Z,11.48
2023-03-20T12:01:04.541Z,8.73
2023-03-20T12:03:44.373Z,13.52
2023-03-20T12:06:18.953Z,19.02
2023-03-20T12:09:10.542Z,10.73
2023-03-20T12:12:00.094Z,9.52
2023-03-20T12:14:26.646Z,10.10
2023-03-20T12:17:10.140Z,9.43
2023-03-20T12:19:40.256Z,9.30
2023-03-20T12:22:33.670Z,9.93
2023-03-20T12:25:25.020Z,11.05
2023-03-20T12:28:29.250Z,8.77
2023-03-20T12:30:58.357Z,11.52
2023-03-20T12:33:36.741Z,16.23
2023-03-20T12:36:04.747Z,7.80
2023-03-20T12:38:32.893Z,30.63
2023-03-20T12:41:24.125Z,23.52
2023-03-20T12:44:04.575Z,9.55
2023-03-20T12:46:43.474Z,8.75
2023-03-20T12:49:29.752Z,16.90
2023-03-20T12:52:29.536Z,17.75
2023-03-20T12:55:10.910Z,25.73
2023-03-20T12:57:59.810Z,17.60
2023-03-20T13:00:47.179Z,8.52
2023-03-20T13:03:48.016Z,11.35
2023-03-20T13:06:23.582Z,7.13
2023-03-20T13:09:20.734Z,8.48
2023-03-20T13:12:05.289Z,8.85
2023-03-20T13:14:41.497Z,7.72
2023-03-20T13:17:21.738Z,10.05
2023-03-20T13:20:18.068Z,10.65
2023-03-20T13:23:07.743Z,9.73
2023-03-20T13:25:52.841Z,125.07
2023-03-20T13:28:24.339Z,8.40
2023-03-20T13:30:58.379Z,7.18
2023-03-20T13:33:54.976Z,6.53
2023-03-20T13:36:24.241Z,7.15
2023-03-20T13:38:59.308Z,7.97
2023-03-20T13:41:27.051Z,8.05
2023-03-20T13:43:58.417Z,11.35
2023-03-20T13:46:33.321Z,23.30
2023-03-20T13:49:07.948Z,28.42
2023-03-20T13:51:46.175Z,28.40
2023-03-20T13:54:15.760Z,25.88
2023-03-20T13:57:19.801Z,18.33
2023-03-20T14:00:01.270Z,33.33
2023-03-20T14:02:49.161Z,21.33
2023-03-20T14:05:21.978Z,20.48
2023-03-20T14:07:54.799Z,22.77
2023-03-20T14:12:56.739Z,11.35
2023-03-20T14:15:32.376Z,6.97
2023-03-20T14:18:04.715Z,13.25
2023-03-20T14:20:39.727Z,10.95
2023-03-20T14:23:06.982Z,16.02
2023-03-20T14:25:40.577Z,11.00
2023-03-20T14:28:13.311Z,11.55
2023-03-20T14:30:47.051Z,8.95
2023-03-20T14:33:13.533Z,13.18
2023-03-20T14:35:45.739Z,10.55
2023-03-20T14:38:54.309Z,8.43
2023-03-20T14:41:37.585Z,13.00
2023-03-20T14:44:35.954Z,10.82
2023-03-20T14:47:26.679Z,11.25
2023-03-20T14:50:14.224Z,15.45
2023-03-20T14:52:54.135Z,17.30
2023-03-20T14:55:20.556Z,14.25
2023-03-20T14:57:56.081Z,13.40
2023-03-20T15:00:26.672Z,8.90
2023-03-20T15:03:17.171Z,10.07
2023-03-20T15:05:45.064Z,9.60
2023-03-20T15:08:21.967Z,10.00
2023-03-20T15:10:55.246Z,24.63
2023-03-20T15:13:22.648Z,17.50
2023-03-20T15:15:57.247Z,12.15
2023-03-20T15:18:26.942Z,13.60
2023-03-20T15:20:56.699Z,13.60
2023-03-20T15:23:23.256Z,15.75
2023-03-20T15:25:50.962Z,16.00
2023-03-20T15:28:23.595Z,12.07
2023-03-20T15:30:52.071Z,18.02
2023-03-20T15:33:23.910Z,14.25
2023-03-20T15:35:51.140Z,22.23
2023-03-20T15:38:19.450Z,25.52
2023-03-20T15:40:51.168Z,31.02
2023-03-20T15:43:28.008Z,40.88
2023-03-20T15:46:17.562Z,61.35
2023-03-20T15:48:50.008Z,38.13
2023-03-20T15:51:18.047Z,41.45
2023-03-20T15:53:47.620Z,56.83
2023-03-20T15:56:19.430Z,40.40
2023-03-20T15:58:50.306Z,38.75
2023-03-20T16:01:22.414Z,45.10
2023-03-20T16:03:49.582Z,39.97
2023-03-20T16:06:20.530Z,24.30
2023-03-20T16:09:05.168Z,285.42
2023-03-20T16:11:40.868Z,50.75
2023-03-20T16:14:13.612Z,33.75
2023-03-20T16:16:40.567Z,48.72
2023-03-20T16:19:07.848Z,38.10
2023-03-20T16:21:38.807Z,23.30
2023-03-20T16:24:14.882Z,24.95
2023-03-20T16:26:45.629Z,26.80
2023-03-20T16:29:14.874Z,108.03
2023-03-20T16:31:48.480Z,46.45
2023-03-20T16:34:26.097Z,46.97
2023-03-20T16:36:58.985Z,37.05
2023-03-20T16:39:28.967Z,51.92
2023-03-20T16:42:10.088Z,100.38
2023-03-20T16:44:36.807Z,160.80
2023-03-20T16:49:44.071Z,70.30
2023-03-20T16:52:14.702Z,47.90
2023-03-20T16:54:41.337Z,51.70
2023-03-20T16:57:16.459Z,72.90
2023-03-20T16:59:43.073Z,151.38
2023-03-20T17:02:29.752Z,129.82
2023-03-20T17:05:01.250Z,125.93
2023-03-20T17:07:27.967Z,177.73
2023-03-20T17:10:00.297Z,163.63
2023-03-20T17:12:32.125Z,144.45
2023-03-20T17:14:58.634Z,131.10
2023-03-20T17:17:26.239Z,113.90
2023-03-20T17:19:52.703Z,143.00
2023-03-20T17:22:24.477Z,120.55
2023-03-20T17:24:51.638Z,131.18
2023-03-20T17:27:19.787Z,138.52
2023-03-20T17:29:47.849Z,154.52
2023-03-20T17:32:21.802Z,222.05
2023-03-20T17:34:48.265Z,266.42
2023-03-20T17:37:22.378Z,443.33
2023-03-20T17:39:48.884Z,395.25
2023-03-20T17:42:20.305Z,398.05
2023-03-20T17:44:48.393Z,342.90
2023-03-20T17:47:16.468Z,285.85
2023-03-20T17:49:43.960Z,278.05
2023-03-20T17:52:19.151Z,259.63
2023-03-20T17:54:46.383Z,248.63
2023-03-20T17:57:27.930Z,257.20
2023-03-20T17:59:54.404Z,313.08
2023-03-20T18:02:20.854Z,363.13
2023-03-20T18:04:47.498Z,366.92
2023-03-20T18:07:15.035Z,383.20
2023-03-20T18:09:42.203Z,455.45
2023-03-20T18:12:15.593Z,391.35
2023-03-20T18:14:42.849Z,369.17
2023-03-20T18:17:12.653Z,337.90
2023-03-20T18:19:39.343Z,329.92
2023-03-20T18:22:05.795Z,321.33
2023-03-20T18:24:32.358Z,330.65
2023-03-20T18:26:59.155Z,323.52
2023-03-20T18:29:25.918Z,310.90
2023-03-20T18:31:52.658Z,314.63
2023-03-20T18:34:19.192Z,342.23
2023-03-20T18:36:46.081Z,326.58
2023-03-20T18:39:18.044Z,324.95
2023-03-20T18:41:45.356Z,337.85
2023-03-20T18:44:12.522Z,349.50
2023-03-20T18:46:39.063Z,364.25
2023-03-20T18:49:05.852Z,350.15
2023-03-20T18:51:32.688Z,336.42
2023-03-20T18:53:59.303Z,340.58
2023-03-20T18:56:27.248Z,332.05
2023-03-20T18:58:53.896Z,266.95
2023-03-20T19:01:20.953Z,331.20
2023-03-20T19:06:17.326Z,265.83
2023-03-20T19:08:45.158Z,246.35
2023-03-20T19:11:12.546Z,250.50
2023-03-20T19:13:39.007Z,309.73
2023-03-20T19:16:13.135Z,298.80
2023-03-20T19:18:40.202Z,331.45
2023-03-20T19:25:59.407Z,279.08
2023-03-20T19:28:39.137Z,326.13
2023-03-20T19:31:08.325Z,293.60
2023-03-20T19:33:35.206Z,320.70
2023-03-20T19:36:04.170Z,373.77
2023-03-20T19:38:31.442Z,317.02
2023-03-20T19:40:58.104Z,328.85
2023-03-20T19:43:24.600Z,330.75
2023-03-20T19:45:52.978Z,344.63
2023-03-20T19:48:26.799Z,325.60
2023-03-20T19:50:55.493Z,338.00
2023-03-20T19:53:23.528Z,325.23
2023-03-20T19:55:50.004Z,325.10
2023-03-20T19:58:16.912Z,332.40
2023-03-20T20:00:59.915Z,357.50
2023-03-20T20:03:27.683Z,347.60
2023-03-20T20:05:55.009Z,395.65
2023-03-20T20:08:44.261Z,433.67
2023-03-20T20:11:08.545Z,455.33
2023-03-20T20:13:47.059Z,494.23
2023-03-20T20:16:21.605Z,472.85
2023-03-20T20:18:48.041Z,484.55
2023-03-20T20:24:01.205Z,475.73
2023-03-20T20:26:31.128Z,453.02
2023-03-20T20:29:01.335Z,468.02
2023-03-20T20:31:29.303Z,461.83
2023-03-20T20:34:36.754Z,408.17
2023-03-20T20:37:35.954Z,448.02
2023-03-20T20:39:28.905Z,331.63
2023-03-20T20:41:55.385Z,348.65
2023-03-20T20:44:21.871Z,321.02
2023-03-20T20:46:48.361Z,322.67
2023-03-20T20:49:19.403Z,264.33
2023-03-20T20:51:46.527Z,256.45
2023-03-20T20:54:12.983Z,239.77
2023-03-20T20:56:39.796Z,236.27
2023-03-20T20:59:06.438Z,295.85
2023-03-20T21:01:33.875Z,250.82
2023-03-20T21:04:00.387Z,197.68
2023-03-20T21:06:54.182Z,189.45
2023-03-20T21:09:13.313Z,161.75
2023-03-20T21:11:39.832Z,253.48
2023-03-20T21:14:06.295Z,218.50
2023-03-20T21:16:32.819Z,215.40
2023-03-20T21:18:59.448Z,235.05
2023-03-20T21:21:26.010Z,218.75
2023-03-20T21:23:52.477Z,258.85
2023-03-20T21:26:18.965Z,251.13
2023-03-20T21:28:45.396Z,264.50
2023-03-20T21:31:26.208Z,258.83
2023-03-20T21:33:54.136Z,249.38
2023-03-20T21:36:21.546Z,278.27
2023-03-20T21:41:37.458Z,386.85
2023-03-20T21:44:04.891Z,323.60
2023-03-20T21:47:22.612Z,292.95
2023-03-20T21:55:25.149Z,316.63
2023-03-20T22:03:23.137Z,367.75
2023-03-20T22:15:03.951Z,374.85
2023-03-20T22:20:38.654Z,353.50
2023-03-20T22:23:25.125Z,343.98
2023-03-20T22:26:23.840Z,333.00
2023-03-20T22:34:28.908Z,336.20
2023-03-20T22:37:30.202Z,343.10
2023-03-20T22:45:05.614Z,244.48
2023-03-20T22:47:32.928Z,222.95
2023-03-20T22:49:59.493Z,216.65
2023-03-20T22:52:37.841Z,231.13
2023-03-20T22:55:12.370Z,229.35
2023-03-20T22:57:45.491Z,249.63
2023-03-20T23:00:20.923Z,251.23
2023-03-20T23:02:47.614Z,245.73
2023-03-20T23:05:14.176Z,230.10
2023-03-20T23:07:40.668Z,212.52
2023-03-20T23:10:07.864Z,209.55
2023-03-20T23:12:34.372Z,201.80
2023-03-20T23:15:00.866Z,221.32
2023-03-20T23:17:36.987Z,272.10
2023-03-20T23:20:11.292Z,306.80
2023-03-20T23:22:39.384Z,336.00
2023-03-20T23:25:16.449Z,367.58
2023-03-20T23:27:50.340Z,373.52
2023-03-20T23:30:16.962Z,344.33
2023-03-20T23:32:43.455Z,353.58
2023-03-20T23:35:10.080Z,325.88
2023-03-20T23:37:37.061Z,320.17
2023-03-20T23:40:04.560Z,309.27
2023-03-20T23:42:31.349Z,301.42
2023-03-20T23:45:04.289Z,298.10
2023-03-20T23:47:44.700Z,268.02
2023-03-20T23:50:20.773Z,257.42
2023-03-20T23:53:01.006Z,250.82
2023-03-20T23:55:35.441Z,258.92
2023-03-20T23:58:02.494Z,273.50
